sensor_id;sensor_type;location;lat;lon;timestamp;P1;durP1;ratioP1;P2;durP2;ratioP2
74849;SDS011;63397;47.480;19.238;2024-03-02T00:01:54;24.83;;;10.10;;
74849;SDS011;63397;47.480;19.238;2024-03-02T00:04:56;24.07;;;9.93;;
74849;SDS011;63397;47.480;19.238;2024-03-02T00:07:59;20.45;;;9.80;;
74849;SDS011;63397;47.480;19.238;2024-03-02T00:11:02;26.77;;;11.43;;
74849;SDS011;63397;47.480;19.238;2024-03-02T00:14:07;22.58;;;9.73;;
74849;SDS011;63397;47.480;19.238;2024-03-02T00:17:14;23.83;;;9.75;;
74849;SDS011;63397;47.480;19.238;2024-03-02T00:20:20;28.90;;;10.03;;
74849;SDS011;63397;47.480;19.238;2024-03-02T00:23:23;25.27;;;11.20;;
74849;SDS011;63397;47.480;19.238;2024-03-02T00:26:26;23.95;;;9.50;;
74849;SDS011;63397;47.480;19.238;2024-03-02T00:29:28;21.02;;;9.30;;
74849;SDS011;63397;47.480;19.238;2024-03-02T00:32:31;25.02;;;10.13;;
74849;SDS011;63397;47.480;19.238;2024-03-02T00:35:34;21.70;;;9.57;;
74849;SDS011;63397;47.480;19.238;2024-03-02T00:38:49;20.05;;;8.73;;
74849;SDS011;63397;47.480;19.238;2024-03-02T00:41:51;22.95;;;9.57;;
74849;SDS011;63397;47.480;19.238;2024-03-02T00:44:54;21.15;;;9.75;;
74849;SDS011;63397;47.480;19.238;2024-03-02T00:47:56;22.25;;;10.05;;
74849;SDS011;63397;47.480;19.238;2024-03-02T00:50:58;21.10;;;9.40;;
74849;SDS011;63397;47.480;19.238;2024-03-02T00:54:04;20.00;;;8.57;;
74849;SDS011;63397;47.480;19.238;2024-03-02T00:57:07;19.27;;;8.88;;
74849;SDS011;63397;47.480;19.238;2024-03-02T01:00:12;22.27;;;9.50;;
74849;SDS011;63397;47.480;19.238;2024-03-02T01:03:17;21.45;;;7.97;;
74849;SDS011;63397;47.480;19.238;2024-03-02T01:06:21;18.07;;;8.63;;
74849;SDS011;63397;47.480;19.238;2024-03-02T01:09:24;21.45;;;9.80;;
74849;SDS011;63397;47.480;19.238;2024-03-02T01:12:27;25.15;;;10.07;;
74849;SDS011;63397;47.480;19.238;2024-03-02T01:15:29;19.23;;;8.50;;
74849;SDS011;63397;47.480;19.238;2024-03-02T01:18:31;22.63;;;8.85;;
74849;SDS011;63397;47.480;19.238;2024-03-02T01:21:34;23.70;;;10.27;;
74849;SDS011;63397;47.480;19.238;2024-03-02T01:24:37;16.38;;;8.77;;
74849;SDS011;63397;47.480;19.238;2024-03-02T01:27:39;22.52;;;8.32;;
74849;SDS011;63397;47.480;19.238;2024-03-02T01:30:41;20.67;;;9.48;;
74849;SDS011;63397;47.480;19.238;2024-03-02T01:33:44;22.27;;;9.30;;
74849;SDS011;63397;47.480;19.238;2024-03-02T01:36:46;23.47;;;9.57;;
74849;SDS011;63397;47.480;19.238;2024-03-02T01:39:48;24.00;;;10.30;;
74849;SDS011;63397;47.480;19.238;2024-03-02T01:42:51;17.55;;;8.10;;
74849;SDS011;63397;47.480;19.238;2024-03-02T01:45:53;25.73;;;10.15;;
74849;SDS011;63397;47.480;19.238;2024-03-02T01:48:56;24.35;;;9.38;;
74849;SDS011;63397;47.480;19.238;2024-03-02T01:51:58;24.30;;;10.43;;
74849;SDS011;63397;47.480;19.238;2024-03-02T01:55:00;21.38;;;9.82;;
74849;SDS011;63397;47.480;19.238;2024-03-02T01:58:03;26.98;;;9.20;;
74849;SDS011;63397;47.480;19.238;2024-03-02T02:01:05;24.60;;;9.85;;
74849;SDS011;63397;47.480;19.238;2024-03-02T02:04:08;24.20;;;9.90;;
74849;SDS011;63397;47.480;19.238;2024-03-02T02:07:10;19.37;;;9.27;;
74849;SDS011;63397;47.480;19.238;2024-03-02T02:10:12;18.95;;;8.60;;
74849;SDS011;63397;47.480;19.238;2024-03-02T02:13:15;21.88;;;8.48;;
74849;SDS011;63397;47.480;19.238;2024-03-02T02:16:17;17.58;;;8.25;;
74849;SDS011;63397;47.480;19.238;2024-03-02T02:19:19;20.45;;;8.43;;
74849;SDS011;63397;47.480;19.238;2024-03-02T02:22:21;21.40;;;8.37;;
74849;SDS011;63397;47.480;19.238;2024-03-02T02:25:24;18.38;;;8.32;;
74849;SDS011;63397;47.480;19.238;2024-03-02T02:28:26;17.50;;;7.97;;
74849;SDS011;63397;47.480;19.238;2024-03-02T02:31:36;19.58;;;7.95;;
74849;SDS011;63397;47.480;19.238;2024-03-02T02:34:38;16.48;;;7.32;;
74849;SDS011;63397;47.480;19.238;2024-03-02T02:37:41;15.33;;;6.80;;
74849;SDS011;63397;47.480;19.238;2024-03-02T02:40:43;13.93;;;6.10;;
74849;SDS011;63397;47.480;19.238;2024-03-02T02:43:45;19.92;;;6.93;;
74849;SDS011;63397;47.480;19.238;2024-03-02T02:46:48;15.55;;;5.63;;
74849;SDS011;63397;47.480;19.238;2024-03-02T02:49:50;19.95;;;7.63;;
74849;SDS011;63397;47.480;19.238;2024-03-02T02:52:52;17.67;;;7.53;;
74849;SDS011;63397;47.480;19.238;2024-03-02T02:55:55;19.77;;;7.18;;
74849;SDS011;63397;47.480;19.238;2024-03-02T02:58:57;21.05;;;7.50;;
74849;SDS011;63397;47.480;19.238;2024-03-02T03:01:59;17.50;;;6.65;;
74849;SDS011;63397;47.480;19.238;2024-03-02T03:05:01;19.95;;;8.18;;
74849;SDS011;63397;47.480;19.238;2024-03-02T03:08:04;16.60;;;6.97;;
74849;SDS011;63397;47.480;19.238;2024-03-02T03:11:06;18.73;;;6.88;;
74849;SDS011;63397;47.480;19.238;2024-03-02T03:14:08;18.73;;;7.95;;
74849;SDS011;63397;47.480;19.238;2024-03-02T03:17:11;21.75;;;8.38;;
74849;SDS011;63397;47.480;19.238;2024-03-02T03:20:13;16.73;;;7.32;;
74849;SDS011;63397;47.480;19.238;2024-03-02T03:23:17;18.73;;;7.27;;
74849;SDS011;63397;47.480;19.238;2024-03-02T03:26:19;17.02;;;6.72;;
74849;SDS011;63397;47.480;19.238;2024-03-02T03:29:21;17.42;;;6.78;;
74849;SDS011;63397;47.480;19.238;2024-03-02T03:32:24;16.60;;;7.00;;
74849;SDS011;63397;47.480;19.238;2024-03-02T03:35:27;20.02;;;6.97;;
74849;SDS011;63397;47.480;19.238;2024-03-02T03:38:29;15.67;;;6.27;;
74849;SDS011;63397;47.480;19.238;2024-03-02T03:41:32;20.92;;;8.20;;
74849;SDS011;63397;47.480;19.238;2024-03-02T03:44:34;16.70;;;6.60;;
74849;SDS011;63397;47.480;19.238;2024-03-02T03:47:36;17.08;;;7.75;;
74849;SDS011;63397;47.480;19.238;2024-03-02T03:50:39;20.58;;;7.40;;
74849;SDS011;63397;47.480;19.238;2024-03-02T03:53:41;15.57;;;7.10;;
74849;SDS011;63397;47.480;19.238;2024-03-02T03:56:44;22.30;;;7.80;;
74849;SDS011;63397;47.480;19.238;2024-03-02T03:59:46;15.43;;;7.30;;
74849;SDS011;63397;47.480;19.238;2024-03-02T04:02:48;15.35;;;7.07;;
74849;SDS011;63397;47.480;19.238;2024-03-02T04:05:51;18.67;;;8.48;;
74849;SDS011;63397;47.480;19.238;2024-03-02T04:08:53;20.40;;;8.17;;
74849;SDS011;63397;47.480;19.238;2024-03-02T04:11:55;16.90;;;6.78;;
74849;SDS011;63397;47.480;19.238;2024-03-02T04:14:57;21.85;;;7.85;;
74849;SDS011;63397;47.480;19.238;2024-03-02T04:17:59;17.38;;;7.82;;
74849;SDS011;63397;47.480;19.238;2024-03-02T04:21:02;21.58;;;7.93;;
74849;SDS011;63397;47.480;19.238;2024-03-02T04:24:04;21.03;;;7.80;;
74849;SDS011;63397;47.480;19.238;2024-03-02T04:27:06;20.02;;;8.20;;
74849;SDS011;63397;47.480;19.238;2024-03-02T04:30:09;20.77;;;8.77;;
74849;SDS011;63397;47.480;19.238;2024-03-02T04:33:11;16.20;;;7.53;;
74849;SDS011;63397;47.480;19.238;2024-03-02T04:36:13;21.45;;;8.50;;
74849;SDS011;63397;47.480;19.238;2024-03-02T04:39:16;23.43;;;8.33;;
74849;SDS011;63397;47.480;19.238;2024-03-02T04:42:18;23.55;;;9.43;;
74849;SDS011;63397;47.480;19.238;2024-03-02T04:45:21;19.02;;;8.20;;
74849;SDS011;63397;47.480;19.238;2024-03-02T04:48:24;19.33;;;8.57;;
74849;SDS011;63397;47.480;19.238;2024-03-02T04:51:26;22.15;;;9.23;;
74849;SDS011;63397;47.480;19.238;2024-03-02T04:54:29;20.23;;;7.37;;
74849;SDS011;63397;47.480;19.238;2024-03-02T04:57:31;20.33;;;8.07;;
74849;SDS011;63397;47.480;19.238;2024-03-02T05:00:34;18.95;;;8.75;;
74849;SDS011;63397;47.480;19.238;2024-03-02T05:03:36;20.55;;;9.02;;
74849;SDS011;63397;47.480;19.238;2024-03-02T05:06:39;20.77;;;8.95;;
74849;SDS011;63397;47.480;19.238;2024-03-02T05:09:44;19.70;;;8.40;;
74849;SDS011;63397;47.480;19.238;2024-03-02T05:12:47;19.98;;;9.00;;
74849;SDS011;63397;47.480;19.238;2024-03-02T05:15:59;22.33;;;8.73;;
74849;SDS011;63397;47.480;19.238;2024-03-02T05:19:01;20.58;;;9.15;;
74849;SDS011;63397;47.480;19.238;2024-03-02T05:22:04;22.33;;;9.43;;
74849;SDS011;63397;47.480;19.238;2024-03-02T05:25:06;24.57;;;9.73;;
74849;SDS011;63397;47.480;19.238;2024-03-02T05:28:09;28.55;;;9.07;;
74849;SDS011;63397;47.480;19.238;2024-03-02T05:31:11;23.92;;;10.07;;
74849;SDS011;63397;47.480;19.238;2024-03-02T05:34:16;20.77;;;9.27;;
74849;SDS011;63397;47.480;19.238;2024-03-02T05:37:19;21.73;;;9.52;;
74849;SDS011;63397;47.480;19.238;2024-03-02T05:40:21;25.33;;;8.60;;
74849;SDS011;63397;47.480;19.238;2024-03-02T05:43:25;24.15;;;9.45;;
74849;SDS011;63397;47.480;19.238;2024-03-02T05:46:27;24.73;;;9.05;;
74849;SDS011;63397;47.480;19.238;2024-03-02T05:49:30;23.10;;;9.10;;
74849;SDS011;63397;47.480;19.238;2024-03-02T05:52:32;20.73;;;9.27;;
74849;SDS011;63397;47.480;19.238;2024-03-02T05:55:34;19.37;;;9.20;;
74849;SDS011;63397;47.480;19.238;2024-03-02T05:58:37;26.83;;;9.27;;
74849;SDS011;63397;47.480;19.238;2024-03-02T06:01:53;30.20;;;9.63;;
74849;SDS011;63397;47.480;19.238;2024-03-02T06:04:56;26.38;;;9.35;;
74849;SDS011;63397;47.480;19.238;2024-03-02T06:07:58;27.33;;;10.70;;
74849;SDS011;63397;47.480;19.238;2024-03-02T06:11:00;23.63;;;10.43;;
74849;SDS011;63397;47.480;19.238;2024-03-02T06:14:03;19.30;;;9.50;;
74849;SDS011;63397;47.480;19.238;2024-03-02T06:17:06;23.58;;;9.65;;
74849;SDS011;63397;47.480;19.238;2024-03-02T06:20:08;27.40;;;10.05;;
74849;SDS011;63397;47.480;19.238;2024-03-02T06:23:11;25.17;;;9.85;;
74849;SDS011;63397;47.480;19.238;2024-03-02T06:26:13;22.23;;;9.60;;
74849;SDS011;63397;47.480;19.238;2024-03-02T06:29:15;22.52;;;9.77;;
74849;SDS011;63397;47.480;19.238;2024-03-02T06:32:18;19.67;;;8.65;;
74849;SDS011;63397;47.480;19.238;2024-03-02T06:35:20;26.05;;;9.68;;
74849;SDS011;63397;47.480;19.238;2024-03-02T06:38:22;26.83;;;10.57;;
74849;SDS011;63397;47.480;19.238;2024-03-02T06:41:24;22.07;;;9.57;;
74849;SDS011;63397;47.480;19.238;2024-03-02T06:44:28;26.27;;;11.18;;
74849;SDS011;63397;47.480;19.238;2024-03-02T06:47:30;23.98;;;11.13;;
74849;SDS011;63397;47.480;19.238;2024-03-02T06:50:33;20.25;;;8.52;;
74849;SDS011;63397;47.480;19.238;2024-03-02T06:53:35;27.38;;;10.27;;
74849;SDS011;63397;47.480;19.238;2024-03-02T06:56:40;23.50;;;9.80;;
74849;SDS011;63397;47.480;19.238;2024-03-02T06:59:42;25.35;;;10.48;;
74849;SDS011;63397;47.480;19.238;2024-03-02T07:02:45;22.80;;;9.57;;
74849;SDS011;63397;47.480;19.238;2024-03-02T07:05:47;20.75;;;10.35;;
74849;SDS011;63397;47.480;19.238;2024-03-02T07:08:50;22.00;;;9.30;;
74849;SDS011;63397;47.480;19.238;2024-03-02T07:11:52;23.70;;;10.17;;
74849;SDS011;63397;47.480;19.238;2024-03-02T07:14:55;25.67;;;11.13;;
74849;SDS011;63397;47.480;19.238;2024-03-02T07:18:13;23.98;;;10.23;;
74849;SDS011;63397;47.480;19.238;2024-03-02T07:21:16;22.05;;;10.10;;
74849;SDS011;63397;47.480;19.238;2024-03-02T07:24:18;27.38;;;11.30;;
74849;SDS011;63397;47.480;19.238;2024-03-02T07:27:21;21.57;;;10.30;;
74849;SDS011;63397;47.480;19.238;2024-03-02T07:30:23;24.85;;;9.48;;
74849;SDS011;63397;47.480;19.238;2024-03-02T07:33:25;23.88;;;9.45;;
74849;SDS011;63397;47.480;19.238;2024-03-02T07:36:28;23.95;;;11.52;;
74849;SDS011;63397;47.480;19.238;2024-03-02T07:39:30;27.52;;;10.75;;
74849;SDS011;63397;47.480;19.238;2024-03-02T07:42:32;21.97;;;8.87;;
74849;SDS011;63397;47.480;19.238;2024-03-02T07:45:35;22.15;;;9.43;;
74849;SDS011;63397;47.480;19.238;2024-03-02T07:48:38;23.77;;;9.02;;
74849;SDS011;63397;47.480;19.238;2024-03-02T07:51:41;23.13;;;9.48;;
74849;SDS011;63397;47.480;19.238;2024-03-02T07:54:43;29.58;;;10.82;;
74849;SDS011;63397;47.480;19.238;2024-03-02T07:57:48;23.70;;;9.33;;
74849;SDS011;63397;47.480;19.238;2024-03-02T08:00:51;21.52;;;9.60;;
74849;SDS011;63397;47.480;19.238;2024-03-02T08:03:59;20.27;;;8.38;;
74849;SDS011;63397;47.480;19.238;2024-03-02T08:07:02;24.52;;;10.43;;
74849;SDS011;63397;47.480;19.238;2024-03-02T08:10:07;21.52;;;9.68;;
74849;SDS011;63397;47.480;19.238;2024-03-02T08:13:10;17.57;;;7.73;;
74849;SDS011;63397;47.480;19.238;2024-03-02T08:16:12;17.70;;;8.40;;
74849;SDS011;63397;47.480;19.238;2024-03-02T08:19:14;14.98;;;6.53;;
74849;SDS011;63397;47.480;19.238;2024-03-02T08:22:17;21.63;;;9.70;;
74849;SDS011;63397;47.480;19.238;2024-03-02T08:25:19;16.58;;;8.65;;
74849;SDS011;63397;47.480;19.238;2024-03-02T08:28:22;18.23;;;8.17;;
74849;SDS011;63397;47.480;19.238;2024-03-02T08:31:24;19.10;;;8.20;;
74849;SDS011;63397;47.480;19.238;2024-03-02T08:34:26;23.40;;;8.82;;
74849;SDS011;63397;47.480;19.238;2024-03-02T08:37:31;20.27;;;7.32;;
74849;SDS011;63397;47.480;19.238;2024-03-02T08:40:33;22.15;;;9.00;;
74849;SDS011;63397;47.480;19.238;2024-03-02T08:43:36;20.17;;;9.40;;
74849;SDS011;63397;47.480;19.238;2024-03-02T08:46:40;19.60;;;7.65;;
74849;SDS011;63397;47.480;19.238;2024-03-02T08:49:45;16.05;;;7.35;;
74849;SDS011;63397;47.480;19.238;2024-03-02T08:52:48;16.10;;;5.93;;
74849;SDS011;63397;47.480;19.238;2024-03-02T08:55:50;19.65;;;7.45;;
74849;SDS011;63397;47.480;19.238;2024-03-02T08:58:53;17.50;;;7.50;;
74849;SDS011;63397;47.480;19.238;2024-03-02T09:01:55;22.60;;;8.80;;
74849;SDS011;63397;47.480;19.238;2024-03-02T09:04:57;18.60;;;7.20;;
74849;SDS011;63397;47.480;19.238;2024-03-02T09:08:00;20.88;;;7.78;;
74849;SDS011;63397;47.480;19.238;2024-03-02T09:11:02;18.30;;;7.43;;
74849;SDS011;63397;47.480;19.238;2024-03-02T09:14:05;15.30;;;6.63;;
74849;SDS011;63397;47.480;19.238;2024-03-02T09:17:07;15.73;;;7.10;;
74849;SDS011;63397;47.480;19.238;2024-03-02T09:20:12;20.27;;;8.40;;
74849;SDS011;63397;47.480;19.238;2024-03-02T09:23:16;17.42;;;6.63;;
74849;SDS011;63397;47.480;19.238;2024-03-02T09:26:18;14.40;;;5.57;;
74849;SDS011;63397;47.480;19.238;2024-03-02T09:29:22;15.40;;;6.53;;
74849;SDS011;63397;47.480;19.238;2024-03-02T09:32:25;15.10;;;6.95;;
74849;SDS011;63397;47.480;19.238;2024-03-02T09:35:27;13.40;;;5.05;;
74849;SDS011;63397;47.480;19.238;2024-03-02T09:38:30;14.57;;;6.45;;
74849;SDS011;63397;47.480;19.238;2024-03-02T09:41:33;14.40;;;5.90;;
74849;SDS011;63397;47.480;19.238;2024-03-02T09:44:36;11.67;;;6.10;;
74849;SDS011;63397;47.480;19.238;2024-03-02T09:47:39;16.65;;;6.65;;
74849;SDS011;63397;47.480;19.238;2024-03-02T09:50:41;14.43;;;5.28;;
74849;SDS011;63397;47.480;19.238;2024-03-02T09:53:43;14.20;;;6.18;;
74849;SDS011;63397;47.480;19.238;2024-03-02T09:56:46;12.32;;;6.20;;
74849;SDS011;63397;47.480;19.238;2024-03-02T09:59:48;15.40;;;6.20;;
74849;SDS011;63397;47.480;19.238;2024-03-02T10:02:50;15.25;;;6.07;;
74849;SDS011;63397;47.480;19.238;2024-03-02T10:05:52;14.45;;;5.00;;
74849;SDS011;63397;47.480;19.238;2024-03-02T10:08:55;14.85;;;6.78;;
74849;SDS011;63397;47.480;19.238;2024-03-02T10:12:03;19.05;;;6.05;;
74849;SDS011;63397;47.480;19.238;2024-03-02T10:15:06;13.47;;;5.47;;
74849;SDS011;63397;47.480;19.238;2024-03-02T10:18:10;13.02;;;5.20;;
74849;SDS011;63397;47.480;19.238;2024-03-02T10:21:13;13.60;;;5.60;;
74849;SDS011;63397;47.480;19.238;2024-03-02T10:24:17;14.73;;;4.88;;
74849;SDS011;63397;47.480;19.238;2024-03-02T10:27:23;13.70;;;5.60;;
74849;SDS011;63397;47.480;19.238;2024-03-02T10:30:26;11.73;;;5.43;;
74849;SDS011;63397;47.480;19.238;2024-03-02T10:33:28;12.20;;;4.75;;
74849;SDS011;63397;47.480;19.238;2024-03-02T10:36:31;11.32;;;5.07;;
74849;SDS011;63397;47.480;19.238;2024-03-02T10:39:34;8.75;;;4.75;;
74849;SDS011;63397;47.480;19.238;2024-03-02T10:42:38;11.18;;;4.95;;
74849;SDS011;63397;47.480;19.238;2024-03-02T10:45:41;13.47;;;4.87;;
74849;SDS011;63397;47.480;19.238;2024-03-02T10:48:43;12.65;;;5.43;;
74849;SDS011;63397;47.480;19.238;2024-03-02T10:51:47;16.67;;;5.53;;
74849;SDS011;63397;47.480;19.238;2024-03-02T10:54:50;12.38;;;4.68;;
74849;SDS011;63397;47.480;19.238;2024-03-02T10:57:52;13.80;;;4.90;;
74849;SDS011;63397;47.480;19.238;2024-03-02T11:01:00;15.87;;;6.27;;
74849;SDS011;63397;47.480;19.238;2024-03-02T11:04:04;15.20;;;5.82;;
74849;SDS011;63397;47.480;19.238;2024-03-02T11:07:11;10.90;;;4.90;;
74849;SDS011;63397;47.480;19.238;2024-03-02T11:10:14;13.88;;;5.57;;
74849;SDS011;63397;47.480;19.238;2024-03-02T11:13:16;11.63;;;4.25;;
74849;SDS011;63397;47.480;19.238;2024-03-02T11:16:27;13.33;;;5.77;;
74849;SDS011;63397;47.480;19.238;2024-03-02T11:19:40;12.63;;;5.30;;
74849;SDS011;63397;47.480;19.238;2024-03-02T11:22:42;13.43;;;5.85;;
74849;SDS011;63397;47.480;19.238;2024-03-02T11:25:46;14.25;;;5.60;;
74849;SDS011;63397;47.480;19.238;2024-03-02T11:28:49;16.55;;;6.53;;
74849;SDS011;63397;47.480;19.238;2024-03-02T11:31:58;11.20;;;4.77;;
74849;SDS011;63397;47.480;19.238;2024-03-02T11:35:02;11.30;;;4.50;;
74849;SDS011;63397;47.480;19.238;2024-03-02T11:38:06;13.50;;;4.88;;
74849;SDS011;63397;47.480;19.238;2024-03-02T11:41:08;12.00;;;5.40;;
74849;SDS011;63397;47.480;19.238;2024-03-02T11:44:11;12.18;;;5.65;;
74849;SDS011;63397;47.480;19.238;2024-03-02T11:47:14;13.23;;;4.67;;
74849;SDS011;63397;47.480;19.238;2024-03-02T11:50:36;12.20;;;5.05;;
74849;SDS011;63397;47.480;19.238;2024-03-02T11:53:42;11.30;;;5.20;;
74849;SDS011;63397;47.480;19.238;2024-03-02T11:56:45;13.40;;;4.88;;
74849;SDS011;63397;47.480;19.238;2024-03-02T11:59:48;14.05;;;6.55;;
74849;SDS011;63397;47.480;19.238;2024-03-02T12:03:01;11.10;;;4.97;;
74849;SDS011;63397;47.480;19.238;2024-03-02T12:06:04;13.32;;;5.53;;
74849;SDS011;63397;47.480;19.238;2024-03-02T12:09:06;12.40;;;5.50;;
74849;SDS011;63397;47.480;19.238;2024-03-02T12:12:13;14.13;;;5.95;;
74849;SDS011;63397;47.480;19.238;2024-03-02T12:15:22;14.32;;;6.43;;
74849;SDS011;63397;47.480;19.238;2024-03-02T12:18:26;10.73;;;4.43;;
74849;SDS011;63397;47.480;19.238;2024-03-02T12:21:29;11.70;;;5.10;;
74849;SDS011;63397;47.480;19.238;2024-03-02T12:24:31;10.70;;;3.80;;
74849;SDS011;63397;47.480;19.238;2024-03-02T12:27:34;12.02;;;4.80;;
74849;SDS011;63397;47.480;19.238;2024-03-02T12:30:36;11.48;;;4.50;;
74849;SDS011;63397;47.480;19.238;2024-03-02T12:33:39;9.83;;;4.17;;
74849;SDS011;63397;47.480;19.238;2024-03-02T12:36:42;16.27;;;5.50;;
74849;SDS011;63397;47.480;19.238;2024-03-02T12:39:45;8.48;;;3.55;;
74849;SDS011;63397;47.480;19.238;2024-03-02T12:42:48;7.70;;;3.75;;
74849;SDS011;63397;47.480;19.238;2024-03-02T12:45:51;8.93;;;3.83;;
74849;SDS011;63397;47.480;19.238;2024-03-02T12:48:53;9.93;;;4.27;;
74849;SDS011;63397;47.480;19.238;2024-03-02T12:51:56;8.65;;;3.33;;
74849;SDS011;63397;47.480;19.238;2024-03-02T12:55:00;9.50;;;4.13;;
74849;SDS011;63397;47.480;19.238;2024-03-02T12:58:05;13.13;;;5.55;;
74849;SDS011;63397;47.480;19.238;2024-03-02T13:01:07;12.00;;;4.40;;
74849;SDS011;63397;47.480;19.238;2024-03-02T13:04:11;9.60;;;4.23;;
74849;SDS011;63397;47.480;19.238;2024-03-02T13:07:13;12.23;;;4.88;;
74849;SDS011;63397;47.480;19.238;2024-03-02T13:10:16;11.40;;;4.50;;
74849;SDS011;63397;47.480;19.238;2024-03-02T13:13:19;12.63;;;4.72;;
74849;SDS011;63397;47.480;19.238;2024-03-02T13:16:21;9.13;;;4.18;;
74849;SDS011;63397;47.480;19.238;2024-03-02T13:19:33;12.47;;;5.17;;
74849;SDS011;63397;47.480;19.238;2024-03-02T13:22:36;11.13;;;4.32;;
74849;SDS011;63397;47.480;19.238;2024-03-02T13:25:38;10.27;;;4.57;;
74849;SDS011;63397;47.480;19.238;2024-03-02T13:28:41;9.70;;;4.15;;
74849;SDS011;63397;47.480;19.238;2024-03-02T13:31:43;11.25;;;4.60;;
74849;SDS011;63397;47.480;19.238;2024-03-02T13:34:45;9.53;;;5.27;;
74849;SDS011;63397;47.480;19.238;2024-03-02T13:37:48;10.20;;;4.50;;
74849;SDS011;63397;47.480;19.238;2024-03-02T13:40:51;10.27;;;4.03;;
74849;SDS011;63397;47.480;19.238;2024-03-02T13:43:54;10.40;;;4.47;;
74849;SDS011;63397;47.480;19.238;2024-03-02T13:46:56;16.70;;;5.72;;
74849;SDS011;63397;47.480;19.238;2024-03-02T13:50:00;10.33;;;4.07;;
74849;SDS011;63397;47.480;19.238;2024-03-02T13:53:03;12.50;;;4.90;;
74849;SDS011;63397;47.480;19.238;2024-03-02T13:56:06;15.48;;;5.50;;
74849;SDS011;63397;47.480;19.238;2024-03-02T13:59:08;12.80;;;5.30;;
74849;SDS011;63397;47.480;19.238;2024-03-02T14:02:11;11.05;;;4.95;;
74849;SDS011;63397;47.480;19.238;2024-03-02T14:05:14;11.43;;;4.20;;
74849;SDS011;63397;47.480;19.238;2024-03-02T14:08:19;9.07;;;4.15;;
74849;SDS011;63397;47.480;19.238;2024-03-02T14:11:24;10.80;;;4.40;;
74849;SDS011;63397;47.480;19.238;2024-03-02T14:14:27;10.40;;;4.70;;
74849;SDS011;63397;47.480;19.238;2024-03-02T14:17:29;8.63;;;3.90;;
74849;SDS011;63397;47.480;19.238;2024-03-02T14:20:34;10.93;;;5.10;;
74849;SDS011;63397;47.480;19.238;2024-03-02T14:23:36;15.35;;;5.20;;
74849;SDS011;63397;47.480;19.238;2024-03-02T14:26:38;14.48;;;4.95;;
74849;SDS011;63397;47.480;19.238;2024-03-02T14:29:43;14.18;;;5.57;;
74849;SDS011;63397;47.480;19.238;2024-03-02T14:32:45;15.48;;;5.38;;
74849;SDS011;63397;47.480;19.238;2024-03-02T14:35:47;16.13;;;4.93;;
74849;SDS011;63397;47.480;19.238;2024-03-02T14:38:50;16.13;;;5.18;;
74849;SDS011;63397;47.480;19.238;2024-03-02T14:41:53;14.13;;;5.07;;
74849;SDS011;63397;47.480;19.238;2024-03-02T14:44:57;13.02;;;5.93;;
74849;SDS011;63397;47.480;19.238;2024-03-02T14:47:59;17.48;;;6.47;;
74849;SDS011;63397;47.480;19.238;2024-03-02T14:51:02;22.20;;;6.70;;
74849;SDS011;63397;47.480;19.238;2024-03-02T14:54:04;13.85;;;5.43;;
74849;SDS011;63397;47.480;19.238;2024-03-02T14:57:07;15.32;;;6.03;;
74849;SDS011;63397;47.480;19.238;2024-03-02T15:00:10;19.95;;;8.07;;
74849;SDS011;63397;47.480;19.238;2024-03-02T15:03:13;20.08;;;6.75;;
74849;SDS011;63397;47.480;19.238;2024-03-02T15:06:16;19.47;;;7.17;;
74849;SDS011;63397;47.480;19.238;2024-03-02T15:09:18;20.58;;;7.60;;
74849;SDS011;63397;47.480;19.238;2024-03-02T15:12:21;21.17;;;6.68;;
74849;SDS011;63397;47.480;19.238;2024-03-02T15:15:25;15.82;;;6.40;;
74849;SDS011;63397;47.480;19.238;2024-03-02T15:18:27;16.98;;;7.28;;
74849;SDS011;63397;47.480;19.238;2024-03-02T15:21:30;20.27;;;7.07;;
74849;SDS011;63397;47.480;19.238;2024-03-02T15:24:32;21.45;;;7.60;;
74849;SDS011;63397;47.480;19.238;2024-03-02T15:27:34;19.30;;;6.80;;
74849;SDS011;63397;47.480;19.238;2024-03-02T15:30:37;17.35;;;6.28;;
74849;SDS011;63397;47.480;19.238;2024-03-02T15:33:40;23.52;;;7.13;;
74849;SDS011;63397;47.480;19.238;2024-03-02T15:36:42;16.17;;;6.33;;
74849;SDS011;63397;47.480;19.238;2024-03-02T15:39:45;17.92;;;7.10;;
74849;SDS011;63397;47.480;19.238;2024-03-02T15:42:48;17.73;;;7.47;;
74849;SDS011;63397;47.480;19.238;2024-03-02T15:45:50;21.27;;;7.10;;
74849;SDS011;63397;47.480;19.238;2024-03-02T15:48:52;17.83;;;7.50;;
74849;SDS011;63397;47.480;19.238;2024-03-02T15:51:55;13.63;;;6.07;;
74849;SDS011;63397;47.480;19.238;2024-03-02T15:54:57;21.48;;;8.13;;
74849;SDS011;63397;47.480;19.238;2024-03-02T15:58:00;15.43;;;7.05;;
74849;SDS011;63397;47.480;19.238;2024-03-02T16:01:03;18.40;;;6.28;;
74849;SDS011;63397;47.480;19.238;2024-03-02T16:04:05;14.70;;;6.43;;
74849;SDS011;63397;47.480;19.238;2024-03-02T16:07:08;17.00;;;6.07;;
74849;SDS011;63397;47.480;19.238;2024-03-02T16:10:10;14.20;;;5.93;;
74849;SDS011;63397;47.480;19.238;2024-03-02T16:13:13;14.48;;;6.45;;
74849;SDS011;63397;47.480;19.238;2024-03-02T16:16:16;16.85;;;5.75;;
74849;SDS011;63397;47.480;19.238;2024-03-02T16:19:18;16.02;;;6.30;;
74849;SDS011;63397;47.480;19.238;2024-03-02T16:22:33;16.27;;;6.50;;
74849;SDS011;63397;47.480;19.238;2024-03-02T16:25:35;15.38;;;6.25;;
74849;SDS011;63397;47.480;19.238;2024-03-02T16:28:39;18.98;;;6.70;;
74849;SDS011;63397;47.480;19.238;2024-03-02T16:31:41;19.40;;;7.47;;
74849;SDS011;63397;47.480;19.238;2024-03-02T16:34:44;15.05;;;5.88;;
74849;SDS011;63397;47.480;19.238;2024-03-02T16:37:47;19.50;;;7.10;;
74849;SDS011;63397;47.480;19.238;2024-03-02T16:40:49;14.55;;;7.38;;
74849;SDS011;63397;47.480;19.238;2024-03-02T16:43:51;15.65;;;7.00;;
74849;SDS011;63397;47.480;19.238;2024-03-02T16:46:54;16.27;;;6.47;;
74849;SDS011;63397;47.480;19.238;2024-03-02T16:49:56;18.67;;;6.80;;
74849;SDS011;63397;47.480;19.238;2024-03-02T16:53:01;14.10;;;5.90;;
74849;SDS011;63397;47.480;19.238;2024-03-02T16:56:05;14.30;;;6.78;;
74849;SDS011;63397;47.480;19.238;2024-03-02T16:59:08;14.90;;;6.50;;
74849;SDS011;63397;47.480;19.238;2024-03-02T17:02:10;16.00;;;6.30;;
74849;SDS011;63397;47.480;19.238;2024-03-02T17:05:12;14.65;;;6.03;;
74849;SDS011;63397;47.480;19.238;2024-03-02T17:08:15;14.23;;;5.93;;
74849;SDS011;63397;47.480;19.238;2024-03-02T17:11:18;13.85;;;5.70;;
74849;SDS011;63397;47.480;19.238;2024-03-02T17:14:20;16.02;;;6.20;;
74849;SDS011;63397;47.480;19.238;2024-03-02T17:17:22;15.98;;;7.40;;
74849;SDS011;63397;47.480;19.238;2024-03-02T17:20:25;12.10;;;6.15;;
74849;SDS011;63397;47.480;19.238;2024-03-02T17:23:27;18.47;;;7.20;;
74849;SDS011;63397;47.480;19.238;2024-03-02T17:26:33;11.98;;;5.07;;
74849;SDS011;63397;47.480;19.238;2024-03-02T17:29:35;11.65;;;5.50;;
74849;SDS011;63397;47.480;19.238;2024-03-02T17:32:38;11.27;;;4.93;;
74849;SDS011;63397;47.480;19.238;2024-03-02T17:35:40;11.23;;;5.70;;
74849;SDS011;63397;47.480;19.238;2024-03-02T17:38:43;13.33;;;5.27;;
74849;SDS011;63397;47.480;19.238;2024-03-02T17:41:45;14.20;;;5.20;;
74849;SDS011;63397;47.480;19.238;2024-03-02T17:44:47;12.13;;;5.03;;
74849;SDS011;63397;47.480;19.238;2024-03-02T17:47:50;14.73;;;5.28;;
74849;SDS011;63397;47.480;19.238;2024-03-02T17:50:52;14.93;;;5.40;;